sensor_id;sensor_type;location;lat;lon;timestamp;pressure;altitude;pressure_sealevel;temperature;humidity
65997;BME280;52765;52.258;21.052;2023-04-30T00:01:06;100347.06;;;13.77;86.06
65997;BME280;52765;52.258;21.052;2023-04-30T00:03:32;100353.69;;;13.75;87.38
65997;BME280;52765;52.258;21.052;2023-04-30T00:05:58;100360.47;;;13.71;88.46
65997;BME280;52765;52.258;21.052;2023-04-30T00:08:25;100358.97;;;13.68;89.39
65997;BME280;52765;52.258;21.052;2023-04-30T00:10:53;100359.13;;;13.66;90.66
65997;BME280;52765;52.258;21.052;2023-04-30T00:13:23;100348.00;;;13.61;92.43
65997;BME280;52765;52.258;21.052;2023-04-30T00:15:50;100358.00;;;13.61;92.72
65997;BME280;52765;52.258;21.052;2023-04-30T00:18:16;100350.88;;;13.60;93.94
65997;BME280;52765;52.258;21.052;2023-04-30T00:20:42;100352.91;;;13.58;94.89
65997;BME280;52765;52.258;21.052;2023-04-30T00:23:10;100357.34;;;13.50;95.97
65997;BME280;52765;52.258;21.052;2023-04-30T00:25:36;100364.09;;;13.55;95.81
65997;BME280;52765;52.258;21.052;2023-04-30T00:28:01;100360.56;;;13.54;95.94
65997;BME280;52765;52.258;21.052;2023-04-30T00:30:27;100364.44;;;13.51;95.89
65997;BME280;52765;52.258;21.052;2023-04-30T00:32:53;100356.00;;;13.46;96.35
65997;BME280;52765;52.258;21.052;2023-04-30T00:35:20;100367.16;;;13.51;96.38
65997;BME280;52765;52.258;21.052;2023-04-30T00:37:46;100370.88;;;13.50;96.22
65997;BME280;52765;52.258;21.052;2023-04-30T00:40:12;100367.97;;;13.52;96.78
65997;BME280;52765;52.258;21.052;2023-04-30T00:42:37;100366.81;;;13.55;96.80
65997;BME280;52765;52.258;21.052;2023-04-30T00:45:03;100379.31;;;13.56;96.95
65997;BME280;52765;52.258;21.052;2023-04-30T00:47:29;100370.81;;;13.59;97.07
65997;BME280;52765;52.258;21.052;2023-04-30T00:49:57;100376.25;;;13.59;96.88
65997;BME280;52765;52.258;21.052;2023-04-30T00:52:23;100370.88;;;13.50;96.46
65997;BME280;52765;52.258;21.052;2023-04-30T00:54:50;100381.34;;;13.54;96.39
65997;BME280;52765;52.258;21.052;2023-04-30T00:57:19;100380.38;;;13.46;95.60
65997;BME280;52765;52.258;21.052;2023-04-30T00:59:45;100378.84;;;13.44;95.41
65997;BME280;52765;52.258;21.052;2023-04-30T01:02:12;100378.69;;;13.37;95.96
65997;BME280;52765;52.258;21.052;2023-04-30T01:04:38;100376.19;;;13.36;95.67
65997;BME280;52765;52.258;21.052;2023-04-30T01:07:04;100374.81;;;13.40;95.51
65997;BME280;52765;52.258;21.052;2023-04-30T01:09:30;100371.09;;;13.41;95.43
65997;BME280;52765;52.258;21.052;2023-04-30T01:14:30;100375.66;;;13.32;95.43
65997;BME280;52765;52.258;21.052;2023-04-30T01:17:04;100375.66;;;13.32;95.43
65997;BME280;52765;52.258;21.052;2023-04-30T01:19:39;100380.91;;;13.33;95.41
65997;BME280;52765;52.258;21.052;2023-04-30T01:22:11;100378.72;;;13.29;95.66
65997;BME280;52765;52.258;21.052;2023-04-30T01:30:17;100381.28;;;13.22;96.84
65997;BME280;52765;52.258;21.052;2023-04-30T01:32:43;100387.19;;;13.26;96.73
65997;BME280;52765;52.258;21.052;2023-04-30T01:35:08;100383.78;;;13.24;96.82
65997;BME280;52765;52.258;21.052;2023-04-30T01:37:39;100388.88;;;13.19;97.62
65997;BME280;52765;52.258;21.052;2023-04-30T01:42:44;100389.94;;;12.93;99.14
65997;BME280;52765;52.258;21.052;2023-04-30T01:48:21;100390.09;;;13.00;99.43
65997;BME280;52765;52.258;21.052;2023-04-30T01:50:54;100386.72;;;12.98;99.58
65997;BME280;52765;52.258;21.052;2023-04-30T01:53:42;100397.56;;;12.81;100.00
65997;BME280;52765;52.258;21.052;2023-04-30T01:56:17;100394.19;;;12.71;100.00
65997;BME280;52765;52.258;21.052;2023-04-30T01:58:47;100399.78;;;12.61;100.00
65997;BME280;52765;52.258;21.052;2023-04-30T02:01:32;100403.81;;;12.49;100.00
65997;BME280;52765;52.258;21.052;2023-04-30T02:03:58;100404.34;;;12.44;100.00
65997;BME280;52765;52.258;21.052;2023-04-30T02:06:25;100401.63;;;12.36;100.00
65997;BME280;52765;52.258;21.052;2023-04-30T02:08:54;100399.25;;;12.41;100.00
65997;BME280;52765;52.258;21.052;2023-04-30T02:11:31;100406.50;;;12.49;100.00
65997;BME280;52765;52.258;21.052;2023-04-30T02:13:56;100402.78;;;12.42;100.00
65997;BME280;52765;52.258;21.052;2023-04-30T02:16:22;100400.75;;;12.35;100.00
65997;BME280;52765;52.258;21.052;2023-04-30T02:18:48;100405.13;;;12.28;100.00
65997;BME280;52765;52.258;21.052;2023-04-30T02:21:14;100408.03;;;12.35;100.00
65997;BME280;52765;52.258;21.052;2023-04-30T02:23:39;100409.19;;;12.40;100.00
65997;BME280;52765;52.258;21.052;2023-04-30T02:26:05;100419.50;;;12.45;100.00
65997;BME280;52765;52.258;21.052;2023-04-30T02:28:34;100420.00;;;12.49;100.00
65997;BME280;52765;52.258;21.052;2023-04-30T02:31:00;100425.59;;;12.55;100.00
65997;BME280;52765;52.258;21.052;2023-04-30T02:33:25;100421.38;;;12.53;100.00
65997;BME280;52765;52.258;21.052;2023-04-30T02:35:51;100420.88;;;12.49;100.00
65997;BME280;52765;52.258;21.052;2023-04-30T02:38:16;100427.09;;;12.42;100.00
65997;BME280;52765;52.258;21.052;2023-04-30T02:40:43;100432.81;;;12.30;100.00
65997;BME280;52765;52.258;21.052;2023-04-30T02:43:08;100431.31;;;12.28;100.00
65997;BME280;52765;52.258;21.052;2023-04-30T02:45:34;100434.03;;;12.28;100.00
65997;BME280;52765;52.258;21.052;2023-04-30T02:47:59;100430.63;;;12.17;100.00
65997;BME280;52765;52.258;21.052;2023-04-30T02:50:25;100435.50;;;12.14;100.00
65997;BME280;52765;52.258;21.052;2023-04-30T02:52:50;100438.53;;;12.02;100.00
65997;BME280;52765;52.258;21.052;2023-04-30T02:55:15;100447.63;;;12.01;100.00
65997;BME280;52765;52.258;21.052;2023-04-30T02:57:41;100450.66;;;12.07;100.00
65997;BME280;52765;52.258;21.052;2023-04-30T03:00:07;100454.38;;;12.06;100.00
65997;BME280;52765;52.258;21.052;2023-04-30T03:02:33;100457.06;;;11.97;100.00
65997;BME280;52765;52.258;21.052;2023-04-30T03:04:58;100459.75;;;11.97;100.00
65997;BME280;52765;52.258;21.052;2023-04-30T03:07:24;100470.19;;;11.92;100.00
65997;BME280;52765;52.258;21.052;2023-04-30T03:09:49;100464.72;;;11.76;100.00
65997;BME280;52765;52.258;21.052;2023-04-30T03:12:15;100466.69;;;11.74;100.00
65997;BME280;52765;52.258;21.052;2023-04-30T03:14:40;100471.91;;;11.67;100.00
65997;BME280;52765;52.258;21.052;2023-04-30T03:17:06;100475.41;;;11.59;100.00
65997;BME280;52765;52.258;21.052;2023-04-30T03:19:32;100480.09;;;11.57;100.00
65997;BME280;52765;52.258;21.052;2023-04-30T03:21:57;100476.88;;;11.54;100.00
65997;BME280;52765;52.258;21.052;2023-04-30T03:24:23;100482.28;;;11.54;100.00
65997;BME280;52765;52.258;21.052;2023-04-30T03:26:49;100479.22;;;11.48;100.00
65997;BME280;52765;52.258;21.052;2023-04-30T03:29:15;100486.06;;;11.35;100.00
65997;BME280;52765;52.258;21.052;2023-04-30T03:31:41;100483.88;;;11.38;100.00
65997;BME280;52765;52.258;21.052;2023-04-30T03:34:07;100485.03;;;11.36;100.00
65997;BME280;52765;52.258;21.052;2023-04-30T03:36:33;100492.81;;;11.39;100.00
65997;BME280;52765;52.258;21.052;2023-04-30T03:38:59;100497.88;;;11.42;100.00
65997;BME280;52765;52.258;21.052;2023-04-30T03:41:28;100510.91;;;11.46;100.00
65997;BME280;52765;52.258;21.052;2023-04-30T03:43:53;100511.53;;;11.40;100.00
65997;BME280;52765;52.258;21.052;2023-04-30T03:46:19;100509.97;;;11.29;100.00
65997;BME280;52765;52.258;21.052;2023-04-30T03:48:44;100526.53;;;11.17;96.54
65997;BME280;52765;52.258;21.052;2023-04-30T03:51:10;100525.94;;;11.05;92.16
65997;BME280;52765;52.258;21.052;2023-04-30T03:53:35;100522.50;;;10.95;88.24
65997;BME280;52765;52.258;21.052;2023-04-30T03:56:01;100531.34;;;10.87;86.21
65997;BME280;52765;52.258;21.052;2023-04-30T03:58:28;100528.78;;;10.85;86.01
65997;BME280;52765;52.258;21.052;2023-04-30T04:00:54;100539.81;;;10.92;85.64
65997;BME280;52765;52.258;21.052;2023-04-30T04:03:19;100550.59;;;10.92;84.09
65997;BME280;52765;52.258;21.052;2023-04-30T04:05:46;100554.06;;;10.84;83.16
65997;BME280;52765;52.258;21.052;2023-04-30T04:08:11;100566.00;;;10.82;82.55
65997;BME280;52765;52.258;21.052;2023-04-30T04:10:37;100562.38;;;10.73;83.68
65997;BME280;52765;52.258;21.052;2023-04-30T04:13:04;100559.38;;;10.76;83.12
65997;BME280;52765;52.258;21.052;2023-04-30T04:15:29;100561.44;;;10.82;82.79
65997;BME280;52765;52.258;21.052;2023-04-30T04:17:55;100569.28;;;10.76;81.27
65997;BME280;52765;52.258;21.052;2023-04-30T04:20:20;100575.59;;;10.66;82.20
65997;BME280;52765;52.258;21.052;2023-04-30T04:23:06;100579.53;;;10.72;80.97
65997;BME280;52765;52.258;21.052;2023-04-30T04:25:32;100586.22;;;10.68;81.43
65997;BME280;52765;52.258;21.052;2023-04-30T04:27:57;100585.31;;;10.77;81.63
65997;BME280;52765;52.258;21.052;2023-04-30T04:30:23;100590.94;;;10.84;80.54
65997;BME280;52765;52.258;21.052;2023-04-30T04:32:48;100603.13;;;10.60;81.73
65997;BME280;52765;52.258;21.052;2023-04-30T04:35:18;100606.13;;;10.57;82.36
65997;BME280;52765;52.258;21.052;2023-04-30T04:37:43;100593.44;;;10.67;83.25
65997;BME280;52765;52.258;21.052;2023-04-30T04:40:09;100607.50;;;10.71;82.17
65997;BME280;52765;52.258;21.052;2023-04-30T04:42:38;100606.03;;;10.77;81.86
65997;BME280;52765;52.258;21.052;2023-04-30T04:45:05;100619.72;;;10.83;81.66
65997;BME280;52765;52.258;21.052;2023-04-30T04:47:31;100611.25;;;10.78;80.84
65997;BME280;52765;52.258;21.052;2023-04-30T04:49:57;100622.56;;;10.82;80.47
65997;BME280;52765;52.258;21.052;2023-04-30T04:52:23;100635.50;;;10.78;79.59
65997;BME280;52765;52.258;21.052;2023-04-30T04:54:48;100620.25;;;10.69;80.77
65997;BME280;52765;52.258;21.052;2023-04-30T04:57:14;100638.75;;;10.82;80.22
65997;BME280;52765;52.258;21.052;2023-04-30T04:59:39;100636.06;;;10.82;79.44
65997;BME280;52765;52.258;21.052;2023-04-30T05:02:05;100645.38;;;10.87;78.99
65997;BME280;52765;52.258;21.052;2023-04-30T05:04:30;100646.78;;;10.91;77.88
65997;BME280;52765;52.258;21.052;2023-04-30T05:06:56;100654.72;;;10.93;77.89
65997;BME280;52765;52.258;21.052;2023-04-30T05:09:21;100644.16;;;11.00;77.29
65997;BME280;52765;52.258;21.052;2023-04-30T05:11:46;100654.88;;;10.91;78.21
65997;BME280;52765;52.258;21.052;2023-04-30T05:14:16;100662.25;;;10.89;78.59
65997;BME280;52765;52.258;21.052;2023-04-30T05:16:45;100661.09;;;10.92;78.82
65997;BME280;52765;52.258;21.052;2023-04-30T05:19:10;100667.91;;;10.96;78.55
65997;BME280;52765;52.258;21.052;2023-04-30T05:21:36;100678.75;;;11.04;78.90
65997;BME280;52765;52.258;21.052;2023-04-30T05:24:02;100659.03;;;11.04;79.07
65997;BME280;52765;52.258;21.052;2023-04-30T05:26:27;100672.19;;;11.07;79.57
65997;BME280;52765;52.258;21.052;2023-04-30T05:28:53;100679.78;;;11.21;78.88
65997;BME280;52765;52.258;21.052;2023-04-30T05:31:18;100681.00;;;11.27;77.47
65997;BME280;52765;52.258;21.052;2023-04-30T05:33:44;100687.81;;;11.31;77.81
65997;BME280;52765;52.258;21.052;2023-04-30T05:36:09;100696.28;;;11.36;76.23
65997;BME280;52765;52.258;21.052;2023-04-30T05:38:35;100693.88;;;11.15;77.92
65997;BME280;52765;52.258;21.052;2023-04-30T05:41:00;100700.09;;;11.16;78.54
65997;BME280;52765;52.258;21.052;2023-04-30T05:43:26;100698.97;;;11.18;78.36
65997;BME280;52765;52.258;21.052;2023-04-30T05:45:52;100694.41;;;11.19;78.25
65997;BME280;52765;52.258;21.052;2023-04-30T05:48:17;100697.81;;;11.21;78.79
65997;BME280;52765;52.258;21.052;2023-04-30T05:50:43;100702.22;;;11.40;77.50
65997;BME280;52765;52.258;21.052;2023-04-30T05:53:08;100696.75;;;11.50;77.25
65997;BME280;52765;52.258;21.052;2023-04-30T05:55:34;100706.75;;;11.57;75.96
65997;BME280;52765;52.258;21.052;2023-04-30T05:57:59;100719.69;;;11.54;75.51
65997;BME280;52765;52.258;21.052;2023-04-30T06:00:25;100712.41;;;11.46;75.36
65997;BME280;52765;52.258;21.052;2023-04-30T06:02:50;100718.25;;;11.59;74.50
65997;BME280;52765;52.258;21.052;2023-04-30T06:05:17;100710.16;;;11.59;73.35
65997;BME280;52765;52.258;21.052;2023-04-30T06:07:42;100731.03;;;11.57;72.66
65997;BME280;52765;52.258;21.052;2023-04-30T06:10:08;100726.66;;;11.56;73.09
65997;BME280;52765;52.258;21.052;2023-04-30T06:12:34;100721.03;;;11.68;70.47
65997;BME280;52765;52.258;21.052;2023-04-30T06:15:00;100730.66;;;11.70;70.18
65997;BME280;52765;52.258;21.052;2023-04-30T06:17:25;100734.06;;;11.54;71.42
65997;BME280;52765;52.258;21.052;2023-04-30T06:19:51;100737.34;;;11.48;72.05
65997;BME280;52765;52.258;21.052;2023-04-30T06:22:16;100729.94;;;11.50;72.32
65997;BME280;52765;52.258;21.052;2023-04-30T06:24:42;100733.44;;;11.42;69.14
65997;BME280;52765;52.258;21.052;2023-04-30T06:27:07;100743.97;;;11.36;70.92
65997;BME280;52765;52.258;21.052;2023-04-30T06:29:33;100749.41;;;11.08;71.09
65997;BME280;52765;52.258;21.052;2023-04-30T06:31:58;100744.00;;;11.08;71.08
65997;BME280;52765;52.258;21.052;2023-04-30T06:34:24;100755.28;;;11.21;69.46
65997;BME280;52765;52.258;21.052;2023-04-30T06:36:49;100746.19;;;11.22;69.54
65997;BME280;52765;52.258;21.052;2023-04-30T06:39:15;100739.59;;;11.35;69.04
65997;BME280;52765;52.258;21.052;2023-04-30T06:41:41;100738.66;;;11.62;67.41
65997;BME280;52765;52.258;21.052;2023-04-30T06:44:07;100727.50;;;11.93;65.41
65997;BME280;52765;52.258;21.052;2023-04-30T06:46:33;100725.84;;;12.18;61.95
65997;BME280;52765;52.258;21.052;2023-04-30T06:48:59;100729.00;;;12.39;59.15
65997;BME280;52765;52.258;21.052;2023-04-30T06:51:24;100722.88;;;12.64;56.40
65997;BME280;52765;52.258;21.052;2023-04-30T06:53:51;100737.47;;;12.71;56.18
65997;BME280;52765;52.258;21.052;2023-04-30T06:56:17;100729.25;;;12.81;57.05
65997;BME280;52765;52.258;21.052;2023-04-30T06:58:42;100734.84;;;12.95;55.98
65997;BME280;52765;52.258;21.052;2023-04-30T07:01:08;100748.13;;;13.23;55.12
65997;BME280;52765;52.258;21.052;2023-04-30T07:03:34;100748.16;;;12.89;62.71
65997;BME280;52765;52.258;21.052;2023-04-30T07:05:59;100751.16;;;12.69;61.84
65997;BME280;52765;52.258;21.052;2023-04-30T07:08:25;100765.97;;;12.13;58.11
65997;BME280;52765;52.258;21.052;2023-04-30T07:10:50;100775.69;;;11.70;58.68
65997;BME280;52765;52.258;21.052;2023-04-30T07:13:16;100772.22;;;11.59;58.46
65997;BME280;52765;52.258;21.052;2023-04-30T07:15:41;100767.06;;;11.66;58.86
65997;BME280;52765;52.258;21.052;2023-04-30T07:18:07;100780.63;;;11.56;59.24
65997;BME280;52765;52.258;21.052;2023-04-30T07:20:34;100779.66;;;11.29;60.77
65997;BME280;52765;52.258;21.052;2023-04-30T07:22:59;100769.34;;;11.43;61.10
65997;BME280;52765;52.258;21.052;2023-04-30T07:25:25;100765.28;;;11.75;60.17
65997;BME280;52765;52.258;21.052;2023-04-30T07:27:50;100756.91;;;11.96;59.24
65997;BME280;52765;52.258;21.052;2023-04-30T07:30:17;100775.81;;;12.22;56.94
65997;BME280;52765;52.258;21.052;2023-04-30T07:32:42;100777.63;;;12.13;55.63
65997;BME280;52765;52.258;21.052;2023-04-30T07:35:08;100772.59;;;12.18;55.73
65997;BME280;52765;52.258;21.052;2023-04-30T07:37:34;100774.41;;;12.36;53.68
65997;BME280;52765;52.258;21.052;2023-04-30T07:39:59;100770.16;;;12.33;54.23
65997;BME280;52765;52.258;21.052;2023-04-30T07:42:25;100765.28;;;12.37;53.84
65997;BME280;52765;52.258;21.052;2023-04-30T07:44:50;100773.50;;;12.53;53.43
65997;BME280;52765;52.258;21.052;2023-04-30T07:47:18;100777.91;;;12.54;53.70
65997;BME280;52765;52.258;21.052;2023-04-30T07:49:45;100783.06;;;12.39;55.37
65997;BME280;52765;52.258;21.052;2023-04-30T07:52:12;100787.66;;;12.21;55.84
65997;BME280;52765;52.258;21.052;2023-04-30T07:54:38;100779.84;;;12.18;55.91
65997;BME280;52765;52.258;21.052;2023-04-30T07:57:05;100793.66;;;12.15;55.08
65997;BME280;52765;52.258;21.052;2023-04-30T07:59:31;100783.69;;;12.15;54.31
65997;BME280;52765;52.258;21.052;2023-04-30T08:01:56;100787.41;;;12.32;54.02
65997;BME280;52765;52.258;21.052;2023-04-30T08:04:22;100782.47;;;12.28;51.49
65997;BME280;52765;52.258;21.052;2023-04-30T08:06:49;100797.28;;;12.24;51.40
65997;BME280;52765;52.258;21.052;2023-04-30T08:09:14;100801.16;;;12.21;51.04
65997;BME280;52765;52.258;21.052;2023-04-30T08:11:40;100799.59;;;12.18;50.81
65997;BME280;52765;52.258;21.052;2023-04-30T08:14:06;100792.03;;;12.22;50.38
65997;BME280;52765;52.258;21.052;2023-04-30T08:16:32;100802.28;;;12.36;50.85
65997;BME280;52765;52.258;21.052;2023-04-30T08:18:57;100808.81;;;12.08;49.68
65997;BME280;52765;52.258;21.052;2023-04-30T08:21:23;100798.47;;;12.03;51.66
65997;BME280;52765;52.258;21.052;2023-04-30T08:23:49;100804.66;;;12.39;51.57
65997;BME280;52765;52.258;21.052;2023-04-30T08:26:14;100806.41;;;12.75;51.46
65997;BME280;52765;52.258;21.052;2023-04-30T08:28:39;100813.81;;;12.47;52.80
65997;BME280;52765;52.258;21.052;2023-04-30T08:31:05;100812.56;;;12.33;53.77
65997;BME280;52765;52.258;21.052;2023-04-30T08:33:30;100817.41;;;12.29;52.90
65997;BME280;52765;52.258;21.052;2023-04-30T08:35:56;100828.31;;;12.19;52.72
65997;BME280;52765;52.258;21.052;2023-04-30T08:38:21;100813.50;;;12.06;52.59
65997;BME280;52765;52.258;21.052;2023-04-30T08:41:08;100837.31;;;11.92;51.14
65997;BME280;52765;52.258;21.052;2023-04-30T08:43:34;100827.09;;;11.96;51.28
65997;BME280;52765;52.258;21.052;2023-04-30T08:45:59;100828.78;;;11.97;50.75
65997;BME280;52765;52.258;21.052;2023-04-30T08:48:26;100832.34;;;11.97;49.46
65997;BME280;52765;52.258;21.052;2023-04-30T08:50:52;100833.72;;;12.01;47.99
65997;BME280;52765;52.258;21.052;2023-04-30T08:53:18;100833.09;;;12.08;47.58
65997;BME280;52765;52.258;21.052;2023-04-30T08:55:46;100839.56;;;12.15;45.90
65997;BME280;52765;52.258;21.052;2023-04-30T08:58:12;100853.69;;;12.09;46.05
65997;BME280;52765;52.258;21.052;2023-04-30T09:00:39;100840.97;;;12.01;46.09
65997;BME280;52765;52.258;21.052;2023-04-30T09:03:05;100836.09;;;12.23;46.24
65997;BME280;52765;52.258;21.052;2023-04-30T09:05:31;100851.22;;;12.15;45.74
65997;BME280;52765;52.258;21.052;2023-04-30T09:07:57;100844.53;;;12.19;45.58
65997;BME280;52765;52.258;21.052;2023-04-30T09:10:22;100849.56;;;12.40;45.93
65997;BME280;52765;52.258;21.052;2023-04-30T09:13:04;100866.97;;;12.38;44.34
65997;BME280;52765;52.258;21.052;2023-04-30T09:15:31;100847.81;;;12.31;43.94
65997;BME280;52765;52.258;21.052;2023-04-30T09:20:36;100850.84;;;12.72;43.28
65997;BME280;52765;52.258;21.052;2023-04-30T09:23:06;100839.47;;;12.43;43.63
65997;BME280;52765;52.258;21.052;2023-04-30T09:25:42;100849.97;;;12.72;43.19
65997;BME280;52765;52.258;21.052;2023-04-30T09:28:08;100856.03;;;12.66;42.84
65997;BME280;52765;52.258;21.052;2023-04-30T09:30:34;100861.66;;;12.72;42.89
65997;BME280;52765;52.258;21.052;2023-04-30T09:33:01;100862.69;;;12.53;43.56
65997;BME280;52765;52.258;21.052;2023-04-30T09:35:38;100852.72;;;12.54;43.85
65997;BME280;52765;52.258;21.052;2023-04-30T09:38:04;100862.53;;;12.55;43.34
65997;BME280;52765;52.258;21.052;2023-04-30T09:40:40;100864.06;;;12.84;41.97
65997;BME280;52765;52.258;21.052;2023-04-30T09:43:06;100873.09;;;12.66;41.12
65997;BME280;52765;52.258;21.052;2023-04-30T09:48:11;100862.88;;;13.04;41.29
65997;BME280;52765;52.258;21.052;2023-04-30T09:50:40;100867.66;;;13.19;41.65
65997;BME280;52765;52.258;21.052;2023-04-30T09:53:07;100863.63;;;13.23;41.77
65997;BME280;52765;52.258;21.052;2023-04-30T09:55:36;100860.59;;;13.26;41.04
65997;BME280;52765;52.258;21.052;2023-04-30T09:58:06;100851.31;;;13.28;40.12
65997;BME280;52765;52.258;21.052;2023-04-30T10:00:33;100864.22;;;13.08;39.79
65997;BME280;52765;52.258;21.052;2023-04-30T10:03:03;100861.00;;;13.05;40.39
65997;BME280;52765;52.258;21.052;2023-04-30T10:05:30;100859.59;;;12.92;40.44
65997;BME280;52765;52.258;21.052;2023-04-30T10:07:57;100860.59;;;12.91;40.90
65997;BME280;52765;52.258;21.052;2023-04-30T10:10:24;100851.09;;;13.22;39.99
65997;BME280;52765;52.258;21.052;2023-04-30T10:12:53;100849.22;;;13.48;39.62
65997;BME280;52765;52.258;21.052;2023-04-30T10:15:25;100860.88;;;13.14;40.00
65997;BME280;52765;52.258;21.052;2023-04-30T10:18:04;100868.69;;;12.91;40.10
65997;BME280;52765;52.258;21.052;2023-04-30T10:20:34;100854.94;;;12.58;40.85
65997;BME280;52765;52.258;21.052;2023-04-30T10:23:01;100840.50;;;13.02;40.49
65997;BME280;52765;52.258;21.052;2023-04-30T10:25:27;100869.19;;;13.47;39.47
65997;BME280;52765;52.258;21.052;2023-04-30T10:27:53;100852.44;;;13.52;38.44
65997;BME280;52765;52.258;21.052;2023-04-30T10:30:20;100853.81;;;13.56;38.82
65997;BME280;52765;52.258;21.052;2023-04-30T10:36:04;100850.38;;;14.13;38.21
65997;BME280;52765;52.258;21.052;2023-04-30T10:38:31;100846.69;;;14.31;38.15
65997;BME280;52765;52.258;21.052;2023-04-30T10:41:00;100854.28;;;14.19;37.96
65997;BME280;52765;52.258;21.052;2023-04-30T10:43:29;100858.84;;;14.10;38.51
65997;BME280;52765;52.258;21.052;2023-04-30T10:45:58;100848.69;;;14.20;38.88
65997;BME280;52765;52.258;21.052;2023-04-30T10:48:28;100845.97;;;14.53;37.55
65997;BME280;52765;52.258;21.052;2023-04-30T10:50:56;100839.03;;;14.51;34.42
65997;BME280;52765;52.258;21.052;2023-04-30T10:53:23;100839.56;;;14.63;34.19
65997;BME280;52765;52.258;21.052;2023-04-30T10:56:01;100853.13;;;14.71;35.04
65997;BME280;52765;52.258;21.052;2023-04-30T10:58:32;100846.50;;;14.65;35.91
65997;BME280;52765;52.258;21.052;2023-04-30T11:01:04;100857.47;;;14.88;35.77
65997;BME280;52765;52.258;21.052;2023-04-30T11:03:31;100843.84;;;15.13;35.74
65997;BME280;52765;52.258;21.052;2023-04-30T11:05:58;100866.41;;;15.13;36.32
65997;BME280;52765;52.258;21.052;2023-04-30T11:08:52;100873.44;;;14.67;37.42
65997;BME280;52765;52.258;21.052;2023-04-30T11:11:18;100852.47;;;14.60;37.65
65997;BME280;52765;52.258;21.052;2023-04-30T11:13:47;100851.72;;;14.58;37.26
65997;BME280;52765;52.258;21.052;2023-04-30T11:16:16;100856.31;;;14.74;37.58
65997;BME280;52765;52.258;21.052;2023-04-30T11:18:45;100860.19;;;14.80;37.00
65997;BME280;52765;52.258;21.052;2023-04-30T11:21:12;100862.56;;;14.58;36.42
65997;BME280;52765;52.258;21.052;2023-04-30T11:23:42;100862.25;;;14.53;36.09
65997;BME280;52765;52.258;21.052;2023-04-30T11:26:08;100866.81;;;14.44;36.35
65997;BME280;52765;52.258;21.052;2023-04-30T11:28:35;100870.38;;;14.12;36.60
65997;BME280;52765;52.258;21.052;2023-04-30T11:31:02;100869.19;;;14.31;37.14
65997;BME280;52765;52.258;21.052;2023-04-30T11:33:30;100874.81;;;14.71;36.52
65997;BME280;52765;52.258;21.052;2023-04-30T11:35:57;100868.00;;;14.58;35.73
65997;BME280;52765;52.258;21.052;2023-04-30T11:38:33;100884.28;;;14.67;35.10
65997;BME280;52765;52.258;21.052;2023-04-30T11:41:02;100863.59;;;14.57;35.82
65997;BME280;52765;52.258;21.052;2023-04-30T11:43:29;100861.91;;;14.40;35.73
65997;BME280;52765;52.258;21.052;2023-04-30T11:46:15;100867.66;;;14.45;35.71
65997;BME280;52765;52.258;21.052;2023-04-30T11:48:44;100888.53;;;14.69;34.96
65997;BME280;52765;52.258;21.052;2023-04-30T11:51:22;100872.44;;;14.59;35.00
65997;BME280;52765;52.258;21.052;2023-04-30T11:53:50;100889.34;;;14.86;35.20
65997;BME280;52765;52.258;21.052;2023-04-30T11:56:23;100869.53;;;15.42;34.26
65997;BME280;52765;52.258;21.052;2023-04-30T11:58:50;100888.38;;;15.35;34.23
65997;BME280;52765;52.258;21.052;2023-04-30T12:01:16;100890.97;;;15.20;34.49
65997;BME280;52765;52.258;21.052;2023-04-30T12:03:47;100882.31;;;15.25;34.85
65997;BME280;52765;52.258;21.052;2023-04-30T12:06:26;100872.31;;;15.17;34.91
65997;BME280;52765;52.258;21.052;2023-04-30T12:08:54;100896.25;;;15.61;34.35
65997;BME280;52765;52.258;21.052;2023-04-30T12:11:24;100898.75;;;15.79;34.39
65997;BME280;52765;52.258;21.052;2023-04-30T12:13:55;100890.91;;;15.36;34.42
65997;BME280;52765;52.258;21.052;2023-04-30T12:16:22;100882.53;;;15.54;34.04
65997;BME280;52765;52.258;21.052;2023-04-30T12:18:48;100889.16;;;15.91;32.96
65997;BME280;52765;52.258;21.052;2023-04-30T12:21:14;100890.34;;;15.97;33.61
65997;BME280;52765;52.258;21.052;2023-04-30T12:23:40;100885.00;;;16.50;32.81
65997;BME280;52765;52.258;21.052;2023-04-30T12:26:06;100896.22;;;16.32;33.21
65997;BME280;52765;52.258;21.052;2023-04-30T12:28:33;100885.34;;;15.78;33.47
65997;BME280;52765;52.258;21.052;2023-04-30T12:30:59;100895.91;;;15.64;33.55
65997;BME280;52765;52.258;21.052;2023-04-30T12:33:29;100876.53;;;15.76;33.51
65997;BME280;52765;52.258;21.052;2023-04-30T12:35:55;100881.19;;;15.90;32.77
65997;BME280;52765;52.258;21.052;2023-04-30T12:38:22;100898.22;;;15.84;33.29
65997;BME280;52765;52.258;21.052;2023-04-30T12:40:48;100881.16;;;15.98;33.02
65997;BME280;52765;52.258;21.052;2023-04-30T12:43:15;100883.50;;;16.01;32.91
65997;BME280;52765;52.258;21.052;2023-04-30T12:45:52;100886.53;;;16.06;33.44
65997;BME280;52765;52.258;21.052;2023-04-30T12:48:19;100879.84;;;16.17;33.14
65997;BME280;52765;52.258;21.052;2023-04-30T12:50:58;100876.75;;;16.81;32.75
65997;BME280;52765;52.258;21.052;2023-04-30T12:53:24;100871.94;;;16.83;32.70
65997;BME280;52765;52.258;21.052;2023-04-30T12:58:34;100877.09;;;17.01;31.37
65997;BME280;52765;52.258;21.052;2023-04-30T13:00:59;100879.91;;;17.08;31.51
65997;BME280;52765;52.258;21.052;2023-04-30T13:03:25;100868.47;;;16.75;31.55